Time;durP1;ratioP1;P1;durP2;ratioP2;P2;SDS_P1;SDS_P2;PMS_P1;PMS_P2;Temp;Humidity;BMP_temperature;BMP_pressure;BME280_temperature;BME280_humidity;BME280_pressure;Samples;Min_cycle;Max_cycle;Signal;HPM_P1;HPM_P2
2024/02/01 14:49:19;;;;;;;10.25;0.60;;;7.90;99.90;;;;;;6275632;22;1753726;-91
2024/02/01 14:51:45;;;;;;;18.08;1.30;;;7.90;99.90;;;;;;6279540;22;20003;-90
2024/02/01 14:54:11;;;;;;;15.80;1.10;;;7.80;99.90;;;;;;6279626;22;20517;-92
2024/02/01 14:56:37;;;;;;;11.35;0.85;;;7.80;99.90;;;;;;6279545;22;20076;-89
2024/02/01 14:59:03;;;;;;;8.82;0.63;;;7.80;99.90;;;;;;6279728;22;20014;-89
2024/02/01 15:01:29;;;;;;;13.35;0.90;;;7.70;99.90;;;;;;6279896;22;20329;-89
2024/02/01 15:03:56;;;;;;;9.15;0.75;;;7.70;99.90;;;;;;6279765;22;20058;-90
2024/02/01 15:06:24;;;;;;;11.07;1.50;;;7.60;99.90;;;;;;6305165;22;20006;-90
2024/02/01 15:08:52;;;;;;;8.15;0.77;;;7.50;99.90;;;;;;6279724;22;20464;-87
2024/02/01 15:11:18;;;;;;;12.60;1.00;;;7.50;99.90;;;;;;6304570;22;20002;-91
2024/02/01 15:14:12;;;;;;;;;;;;;;;;;;;;;
2024/02/01 15:19:57;;;;;;;7.85;0.75;;;7.50;99.90;;;;;;6325360;22;20081;-90
2024/02/01 15:22:24;;;;;;;8.50;0.60;;;7.40;99.90;;;;;;6332579;22;20034;-90
2024/02/01 15:24:50;;;;;;;9.18;0.60;;;7.40;99.90;;;;;;6279517;22;20513;-89
2024/02/01 15:27:18;;;;;;;9.02;1.15;;;7.40;99.90;;;;;;6278727;22;20031;-91
2024/02/01 15:29:45;;;;;;;8.07;0.70;;;7.40;99.90;;;;;;6279046;22;20068;-90
2024/02/01 15:32:16;;;;;;;11.68;0.80;;;7.40;99.90;;;;;;6279388;22;20671;-90
2024/02/01 15:34:45;;;;;;;7.63;0.85;;;7.40;99.90;;;;;;6279376;22;20007;-90
2024/02/01 15:37:11;;;;;;;3.33;0.50;;;7.50;99.90;;;;;;6304432;22;20033;-89
2024/02/01 15:39:41;;;;;;;11.05;0.90;;;7.40;99.90;;;;;;6279277;22;20130;-89
2024/02/01 15:42:08;;;;;;;11.35;1.00;;;7.40;99.90;;;;;;6305446;22;20014;-90
2024/02/01 15:44:47;;;;;;;11.55;1.20;;;7.50;99.90;;;;;;6277104;22;20022;-89
2024/02/01 15:47:13;;;;;;;15.43;1.10;;;7.50;99.90;;;;;;6305614;22;20011;-90
2024/02/01 15:49:39;;;;;;;9.63;0.85;;;7.50;99.90;;;;;;6278463;22;20315;-89
2024/02/01 15:52:05;;;;;;;13.05;1.13;;;7.50;99.90;;;;;;6302111;22;20094;-89
2024/02/01 15:54:31;;;;;;;10.07;1.17;;;7.40;99.90;;;;;;6301207;22;20461;-89
2024/02/01 15:56:58;;;;;;;7.20;0.60;;;7.30;99.90;;;;;;6301969;22;20007;-89
2024/02/01 15:59:24;;;;;;;7.47;0.63;;;7.30;99.90;;;;;;6301240;22;20029;-90
2024/02/01 16:01:50;;;;;;;9.32;0.70;;;7.20;99.90;;;;;;6300692;22;20012;-89
2024/02/01 16:04:15;;;;;;;13.43;0.80;;;7.20;99.90;;;;;;6298977;22;20064;-89
2024/02/01 16:06:41;;;;;;;11.02;0.73;;;7.20;99.90;;;;;;6301503;22;20327;-88
2024/02/01 16:09:11;;;;;;;15.77;0.80;;;7.10;99.90;;;;;;6301110;22;20011;-89
2024/02/01 16:11:38;;;;;;;11.40;0.63;;;7.00;99.90;;;;;;6301717;22;20009;-89
2024/02/01 16:14:18;;;;;;;14.80;1.15;;;6.90;99.90;;;;;;6325410;22;20011;-89
2024/02/01 16:16:49;;;;;;;11.95;1.25;;;6.80;99.90;;;;;;6301187;22;20015;-90
2024/02/01 16:19:30;;;;;;;12.63;0.85;;;6.90;99.90;;;;;;6299582;22;20004;-90
2024/02/01 16:21:56;;;;;;;11.98;0.88;;;6.80;99.90;;;;;;6300234;22;20014;-89
2024/02/01 16:24:54;;;;;;;9.30;1.15;;;6.80;99.90;;;;;;6300941;22;20015;-89
2024/02/01 16:27:19;;;;;;;9.52;0.60;;;6.70;99.90;;;;;;6299451;22;20004;-90
2024/02/01 16:30:01;;;;;;;6.18;0.82;;;6.50;99.90;;;;;;6302140;22;20015;-90
2024/02/01 16:32:34;;;;;;;12.23;0.75;;;6.40;99.90;;;;;;6298576;22;20011;-91
2024/02/01 16:35:01;;;;;;;9.23;0.75;;;6.40;99.90;;;;;;6301745;22;20252;-89
2024/02/01 16:37:27;;;;;;;6.85;0.60;;;6.40;99.90;;;;;;6327305;22;20007;-90
2024/02/01 16:39:57;;;;;;;5.07;0.50;;;6.30;99.90;;;;;;6327835;22;20033;-90
2024/02/01 16:42:41;;;;;;;;;;;6.30;99.90;;;;;;6301744;22;20106;-89
2024/02/01 16:45:11;;;;;;;8.90;0.88;;;6.30;99.90;;;;;;6301552;22;19909;-89
2024/02/01 16:47:43;;;;;;;13.32;0.88;;;6.20;99.90;;;;;;6301253;22;20011;-89
2024/02/01 16:50:42;;;;;;;5.78;0.40;;;6.20;99.90;;;;;;6288483;22;20670;-91
2024/02/01 16:53:16;;;;;;;8.25;0.93;;;6.20;99.90;;;;;;6301430;22;20011;-89
2024/02/01 16:55:53;;;;;;;10.38;0.77;;;6.20;99.90;;;;;;6301566;22;20152;-90
2024/02/01 16:58:43;;;;;;;8.52;0.60;;;6.10;99.90;;;;;;6301219;22;20011;-90
2024/02/01 17:01:30;;;;;;;8.82;0.60;;;6.10;99.90;;;;;;6301538;22;20003;-88
2024/02/01 17:03:57;;;;;;;7.45;0.60;;;6.00;99.90;;;;;;6275951;22;20019;-89
2024/02/01 17:06:24;;;;;;;7.53;0.63;;;6.00;99.90;;;;;;6300784;22;20034;-90
2024/02/01 17:08:52;;;;;;;11.63;0.70;;;6.00;99.90;;;;;;6301739;22;20085;-90
2024/02/01 17:11:23;;;;;;;8.10;0.77;;;5.90;99.90;;;;;;6301064;22;20011;-90
2024/02/01 17:13:50;;;;;;;5.10;0.40;;;5.90;99.90;;;;;;6301534;22;20034;-90
2024/02/01 17:16:47;;;;;;;5.97;0.60;;;5.70;99.90;;;;;;6327214;22;20015;-90
2024/02/01 17:19:13;;;;;;;6.05;0.40;;;5.60;99.90;;;;;;6326731;22;20023;-90
2024/02/01 17:21:40;;;;;;;6.70;0.43;;;5.50;99.90;;;;;;6301026;22;20441;-90
2024/02/01 17:24:08;;;;;;;3.75;0.50;;;5.40;99.90;;;;;;6301902;22;20018;-90
2024/02/01 17:26:37;;;;;;;6.00;0.40;;;5.40;99.90;;;;;;6301922;22;20015;-88
2024/02/01 17:29:03;;;;;;;3.67;0.30;;;5.30;99.90;;;;;;6327662;22;20011;-89
2024/02/01 17:31:34;;;;;;;2.90;0.40;;;5.20;99.90;;;;;;6301033;22;20011;-89
2024/02/01 17:34:04;;;;;;;2.58;0.30;;;5.20;99.90;;;;;;6301591;22;20023;-86
2024/02/01 17:36:37;;;;;;;;;;;5.00;99.90;;;;;;6301363;22;20042;-87
2024/02/01 17:39:10;;;;;;;4.47;0.40;;;5.10;99.90;;;;;;6276891;22;19903;-89
2024/02/01 17:41:37;;;;;;;6.80;0.55;;;5.10;99.90;;;;;;6316207;22;20011;-88
2024/02/01 17:44:24;;;;;;;4.65;0.50;;;5.20;99.90;;;;;;6325091;22;20072;-88
2024/02/01 17:46:54;;;;;;;9.27;0.60;;;5.20;99.90;;;;;;6325966;22;20011;-88
2024/02/01 17:49:43;;;;;;;9.73;0.50;;;5.20;99.90;;;;;;6287377;22;20090;-89
2024/02/01 17:52:50;;;;;;;11.82;0.80;;;5.20;99.90;;;;;;6301210;22;20018;-89
2024/02/01 17:55:21;;;;;;;6.13;0.60;;;5.20;99.90;;;;;;6301383;22;20327;-89
2024/02/01 17:57:54;;;;;;;9.13;0.73;;;5.10;99.90;;;;;;6300427;22;20007;-89
2024/02/01 18:00:26;;;;;;;4.70;0.40;;;5.20;99.90;;;;;;6300922;22;20093;-89
2024/02/01 18:02:54;;;;;;;7.60;0.40;;;5.00;99.90;;;;;;6299772;22;20501;-90
2024/02/01 18:05:23;;;;;;;10.30;0.65;;;5.10;99.90;;;;;;6301063;22;20003;-89
2024/02/01 18:07:51;;;;;;;8.20;0.60;;;5.20;99.90;;;;;;6301233;22;20043;-89
2024/02/01 18:10:17;;;;;;;7.65;0.70;;;5.10;99.90;;;;;;6326873;22;20038;-88
2024/02/01 18:12:45;;;;;;;7.80;1.15;;;5.00;99.90;;;;;;6301297;22;20034;-88
2024/02/01 18:15:55;;;;;;;7.97;0.60;;;5.00;99.90;;;;;;6327241;22;20007;-88
2024/02/01 18:18:22;;;;;;;;;;;5.00;99.90;;;;;;6282686;22;20003;-89
2024/02/01 18:20:48;;;;;;;7.28;0.93;;;4.90;99.90;;;;;;6275960;22;19909;-88
2024/02/01 18:23:20;;;;;;;8.75;0.63;;;5.00;99.90;;;;;;6301039;22;20015;-88
2024/02/01 18:25:47;;;;;;;8.35;0.98;;;4.90;99.90;;;;;;6301072;22;20457;-88
2024/02/01 18:28:17;;;;;;;10.10;1.00;;;4.90;99.90;;;;;;6327337;22;20007;-87
2024/02/01 18:30:43;;;;;;;8.23;0.73;;;4.90;99.90;;;;;;6327583;22;20015;-88
2024/02/01 18:33:14;;;;;;;10.38;1.02;;;4.90;99.90;;;;;;6301172;22;20060;-88
2024/02/01 18:35:43;;;;;;;15.40;2.33;;;4.90;99.90;;;;;;6327560;22;20011;-88
2024/02/01 18:38:18;;;;;;;9.63;1.25;;;5.00;99.90;;;;;;6301392;22;20097;-88
2024/02/01 18:40:50;;;;;;;6.93;0.88;;;4.90;99.90;;;;;;6301432;22;20385;-88
2024/02/01 18:43:22;;;;;;;13.57;1.20;;;4.80;99.90;;;;;;6327052;22;20111;-88
2024/02/01 18:45:48;;;;;;;9.13;1.33;;;4.80;99.90;;;;;;6327455;22;20004;-89
2024/02/01 18:48:25;;;;;;;10.18;0.95;;;4.80;99.90;;;;;;6301919;22;20007;-88
2024/02/01 18:50:56;;;;;;;9.93;0.93;;;4.70;99.90;;;;;;6275487;22;20342;-88
2024/02/01 18:53:53;;;;;;;5.85;0.82;;;4.80;99.90;;;;;;6301077;22;20011;-88
2024/02/01 18:56:25;;;;;;;9.45;1.20;;;4.70;99.90;;;;;;6296136;22;20011;-88
2024/02/01 18:58:52;;;;;;;7.57;0.57;;;4.50;99.90;;;;;;6302357;22;20335;-89
2024/02/01 19:01:48;;;;;;;6.43;0.47;;;4.40;99.90;;;;;;6327256;22;20031;-88
2024/02/01 19:04:23;;;;;;;2.83;0.35;;;4.30;99.90;;;;;;6297647;22;20011;-88
2024/02/01 19:06:55;;;;;;;7.60;0.80;;;4.30;99.90;;;;;;6327847;22;20030;-88
2024/02/01 19:09:29;;;;;;;3.00;0.40;;;4.30;99.90;;;;;;6327077;22;20342;-89
2024/02/01 19:11:57;;;;;;;6.18;0.43;;;4.30;99.90;;;;;;6302981;22;20435;-88
2024/02/01 19:14:34;;;;;;;5.95;0.68;;;4.20;99.90;;;;;;6302696;22;20061;-88
2024/02/01 19:17:04;;;;;;;5.03;0.40;;;4.00;99.90;;;;;;6300588;22;20060;-88
2024/02/01 19:19:30;;;;;;;7.10;0.50;;;3.90;99.90;;;;;;6301033;22;20007;-88
2024/02/01 19:21:57;;;;;;;5.32;0.40;;;4.10;99.90;;;;;;6326848;22;20061;-87
2024/02/01 19:24:30;;;;;;;6.97;0.80;;;4.20;99.90;;;;;;6300096;22;20525;-88
2024/02/01 19:26:57;;;;;;;10.90;1.13;;;4.30;99.90;;;;;;6327678;22;20003;-90
2024/02/01 19:29:24;;;;;;;7.03;0.70;;;4.30;99.90;;;;;;6300554;22;20034;-88
2024/02/01 19:31:50;;;;;;;10.18;0.70;;;4.20;99.90;;;;;;6300588;22;20013;-88
2024/02/01 19:34:27;;;;;;;5.43;0.60;;;4.20;99.90;;;;;;6301151;22;20347;-88
2024/02/01 19:36:54;;;;;;;9.25;0.70;;;4.20;99.90;;;;;;6327255;22;20306;-89
2024/02/01 19:39:25;;;;;;;8.20;0.50;;;4.20;99.90;;;;;;6327023;22;20104;-88
2024/02/01 19:41:52;;;;;;;6.80;0.50;;;4.10;99.90;;;;;;6300492;22;20000;-88
2024/02/01 19:44:17;;;;;;;9.13;0.70;;;4.10;99.90;;;;;;6302061;22;20057;-89
2024/02/01 19:46:44;;;;;;;12.68;1.23;;;4.10;99.90;;;;;;6327066;22;20304;-88
2024/02/01 19:49:10;;;;;;;10.10;1.40;;;4.20;99.90;;;;;;6301199;22;20076;-88
2024/02/01 19:51:37;;;;;;;7.30;0.70;;;4.20;99.90;;;;;;6301057;22;20370;-88
2024/02/01 19:54:03;;;;;;;9.63;1.73;;;4.10;99.90;;;;;;6300956;22;20014;-88
2024/02/01 19:56:29;;;;;;;7.32;1.38;;;4.20;99.90;;;;;;6300980;22;20015;-88
2024/02/01 19:58:55;;;;;;;10.48;1.35;;;4.20;99.90;;;;;;6326253;22;20010;-89
2024/02/01 20:01:21;;;;;;;8.27;0.75;;;4.00;99.90;;;;;;6326873;22;20331;-87
2024/02/01 20:03:47;;;;;;;4.15;0.50;;;4.00;99.90;;;;;;6275010;22;20015;-88
2024/02/01 20:06:16;;;;;;;9.77;0.98;;;4.00;99.90;;;;;;6326620;22;20052;-88
2024/02/01 20:08:43;;;;;;;5.28;0.57;;;4.00;99.90;;;;;;6327179;22;20007;-88
2024/02/01 20:11:09;;;;;;;4.40;0.60;;;3.90;99.90;;;;;;6300093;22;20533;-88
2024/02/01 20:13:39;;;;;;;10.27;0.98;;;4.00;99.90;;;;;;6327041;22;20440;-87
2024/02/01 20:16:07;;;;;;;6.60;0.85;;;4.00;99.90;;;;;;6300741;22;20447;-87
2024/02/01 20:18:34;;;;;;;8.93;0.88;;;4.00;99.90;;;;;;6299881;22;20019;-87
2024/02/01 20:21:00;;;;;;;12.68;1.30;;;4.00;99.90;;;;;;6327001;22;20007;-87
2024/02/01 20:23:26;;;;;;;13.10;1.33;;;4.00;99.90;;;;;;6301608;22;20034;-87
2024/02/01 20:25:53;;;;;;;11.65;1.42;;;4.00;99.90;;;;;;6300463;22;20003;-87
2024/02/01 20:29:10;;;;;;;11.60;1.30;;;4.10;99.90;;;;;;6300078;22;20015;-87
2024/02/01 20:31:38;;;;;;;14.75;2.08;;;4.20;99.90;;;;;;6290203;22;20042;-88
2024/02/01 20:34:05;;;;;;;12.75;1.90;;;4.20;99.90;;;;;;6302438;22;20331;-87
2024/02/01 20:36:39;;;;;;;13.07;2.28;;;4.20;99.90;;;;;;6302220;22;20030;-87
2024/02/01 20:39:22;;;;;;;18.73;2.40;;;4.30;99.90;;;;;;6300041;22;20035;-87
2024/02/01 20:41:51;;;;;;;13.60;1.70;;;4.30;99.90;;;;;;6298277;22;20477;-87
2024/02/01 20:44:36;;;;;;;12.55;1.23;;;4.30;99.90;;;;;;6298916;22;20030;-88
2024/02/01 20:47:10;;;;;;;17.42;1.90;;;4.30;99.90;;;;;;6294799;22;20137;-89
2024/02/01 20:49:36;;;;;;;11.05;1.20;;;4.20;99.90;;;;;;6326773;22;20121;-88
2024/02/01 20:52:04;;;;;;;7.43;0.80;;;4.20;99.90;;;;;;6301678;22;20034;-88
2024/02/01 20:54:37;;;;;;;4.15;1.00;;;4.20;99.90;;;;;;6300954;22;20022;-89
2024/02/01 20:57:18;;;;;;;10.23;1.10;;;4.20;99.90;;;;;;6301188;22;20065;-88
2024/02/01 20:59:52;;;;;;;5.43;0.70;;;4.20;99.90;;;;;;6275199;22;20025;-88
2024/02/01 21:02:55;;;;;;;6.38;0.70;;;4.20;99.90;;;;;;6301040;22;20600;-89
2024/02/01 21:05:36;;;;;;;7.55;1.15;;;4.20;99.90;;;;;;6275533;22;20015;-89
2024/02/01 21:08:04;;;;;;;5.72;0.63;;;4.20;99.90;;;;;;6301492;22;20015;-90
2024/02/01 21:10:49;;;;;;;6.72;0.52;;;4.10;99.90;;;;;;6301285;22;20018;-88
2024/02/01 21:13:16;;;;;;;4.75;0.45;;;4.10;99.90;;;;;;6301242;22;20082;-89
2024/02/01 21:15:44;;;;;;;2.75;0.50;;;4.20;99.90;;;;;;6300928;22;20007;-88
2024/02/01 21:18:14;;;;;;;2.97;0.40;;;4.20;99.90;;;;;;6300976;22;20443;-89
2024/02/01 21:20:43;;;;;;;4.43;0.50;;;4.20;99.90;;;;;;6327918;22;20370;-88
2024/02/01 21:23:34;;;;;;;7.20;1.10;;;4.30;99.90;;;;;;6301010;22;20117;-88
2024/02/01 21:26:39;;;;;;;3.53;0.70;;;4.30;99.90;;;;;;6287795;22;20007;-89
2024/02/01 21:29:23;;;;;;;4.68;0.50;;;4.40;99.90;;;;;;6187218;23;20087;-89
2024/02/01 21:31:50;;;;;;;3.60;0.50;;;4.50;99.90;;;;;;6238162;23;20027;-89
2024/02/01 21:34:18;;;;;;;2.78;0.60;;;4.40;99.90;;;;;;6289544;22;20027;-89
2024/02/01 21:36:55;;;;;;;4.43;0.68;;;4.50;99.90;;;;;;6301276;22;20007;-88
2024/02/01 21:39:45;;;;;;;5.10;0.80;;;4.50;99.90;;;;;;6300214;22;20331;-91
2024/02/01 21:42:52;;;;;;;6.60;0.77;;;4.50;99.90;;;;;;6274738;22;20007;-89
2024/02/01 21:45:22;;;;;;;4.50;0.50;;;4.60;99.90;;;;;;6300144;22;20011;-89
2024/02/01 21:47:50;;;;;;;4.88;0.50;;;4.60;99.90;;;;;;6301813;22;20003;-91
2024/02/01 21:50:17;;;;;;;4.82;0.70;;;4.60;99.90;;;;;;6327111;22;20077;-89
2024/02/01 21:52:42;;;;;;;9.52;1.08;;;4.70;99.90;;;;;;6302010;22;20011;-90
2024/02/01 21:55:08;;;;;;;5.28;1.00;;;4.70;99.90;;;;;;6327772;22;20011;-90
2024/02/01 21:57:34;;;;;;;8.15;0.75;;;4.80;99.90;;;;;;6301718;22;20433;-90
2024/02/01 22:00:00;;;;;;;4.45;0.57;;;4.80;99.90;;;;;;6301469;22;20011;-90
2024/02/01 22:02:26;;;;;;;2.88;0.50;;;4.80;99.90;;;;;;6327359;22;20409;-90
2024/02/01 22:04:52;;;;;;;2.30;0.40;;;4.80;99.90;;;;;;6301151;22;20007;-91
2024/02/01 22:07:17;;;;;;;4.53;0.50;;;4.80;99.90;;;;;;6301401;22;20491;-90
2024/02/01 22:09:43;;;;;;;6.00;0.60;;;4.90;99.90;;;;;;6301903;22;20007;-90
2024/02/01 22:12:09;;;;;;;6.82;0.55;;;4.90;99.90;;;;;;6302198;22;20018;-90
2024/02/01 22:14:34;;;;;;;8.10;0.60;;;4.90;99.90;;;;;;6302171;22;20007;-91
2024/02/01 22:17:00;;;;;;;5.93;0.70;;;4.90;99.90;;;;;;6302298;22;20378;-90
2024/02/01 22:19:26;;;;;;;8.20;0.52;;;4.90;99.90;;;;;;6302115;22;20008;-90
2024/02/01 22:21:53;;;;;;;8.13;1.13;;;4.90;99.90;;;;;;6328748;22;20331;-89
2024/02/01 22:24:19;;;;;;;5.07;0.50;;;4.90;99.90;;;;;;6328642;22;20715;-90
2024/02/01 22:26:44;;;;;;;6.50;0.73;;;4.90;99.90;;;;;;6303792;22;20022;-90
2024/02/01 22:29:10;;;;;;;5.07;0.60;;;5.00;99.90;;;;;;6303328;22;20439;-89
2024/02/01 22:31:36;;;;;;;5.93;0.57;;;5.00;99.90;;;;;;6302689;22;20034;-90
2024/02/01 22:34:01;;;;;;;5.80;0.70;;;5.10;99.90;;;;;;6328767;22;20042;-89
2024/02/01 22:36:27;;;;;;;7.28;0.70;;;5.10;99.90;;;;;;6302282;22;20259;-90
2024/02/01 22:38:53;;;;;;;8.13;0.70;;;5.10;99.90;;;;;;6328416;22;20006;-89
2024/02/01 22:41:19;;;;;;;5.57;0.47;;;5.10;99.90;;;;;;6302061;22;20091;-90
2024/02/01 22:43:44;;;;;;;4.05;0.45;;;5.10;99.90;;;;;;6328724;22;20015;-90
2024/02/01 22:46:10;;;;;;;3.33;0.75;;;5.10;99.90;;;;;;6303021;22;20006;-90
2024/02/01 22:48:36;;;;;;;8.25;0.95;;;5.10;99.90;;;;;;6302098;22;20089;-89
2024/02/01 22:51:01;;;;;;;5.32;0.50;;;5.10;99.90;;;;;;6328719;22;20013;-90
2024/02/01 22:53:27;;;;;;;3.72;0.45;;;5.10;99.90;;;;;;6276113;22;20007;-90
2024/02/01 22:55:53;;;;;;;8.07;0.47;;;5.10;99.90;;;;;;6329168;22;20010;-90
2024/02/01 22:58:19;;;;;;;7.82;0.75;;;5.10;99.90;;;;;;6301918;22;20022;-90
2024/02/01 23:00:44;;;;;;;5.50;0.60;;;5.10;99.90;;;;;;6302527;22;20052;-90
2024/02/01 23:03:10;;;;;;;7.82;0.75;;;5.10;99.90;;;;;;6302019;22;20023;-91
2024/02/01 23:05:36;;;;;;;6.25;0.50;;;5.10;99.90;;;;;;6328580;22;20031;-90
2024/02/01 23:08:02;;;;;;;5.70;0.43;;;5.10;99.90;;;;;;6328672;22;20146;-89
2024/02/01 23:10:27;;;;;;;2.83;0.68;;;5.10;99.90;;;;;;6302459;22;20000;-90
2024/02/01 23:12:53;;;;;;;6.78;0.55;;;5.20;99.90;;;;;;6302515;22;20011;-90
2024/02/01 23:15:19;;;;;;;5.85;0.90;;;5.20;99.90;;;;;;6302140;22;20004;-90
2024/02/01 23:17:44;;;;;;;10.02;0.73;;;5.20;99.90;;;;;;6302075;22;20018;-89
2024/02/01 23:20:11;;;;;;;4.22;0.75;;;5.20;99.90;;;;;;6302189;22;20431;-90
2024/02/01 23:22:37;;;;;;;5.95;0.40;;;5.20;99.90;;;;;;6328257;22;20022;-90
2024/02/01 23:25:04;;;;;;;6.13;0.85;;;5.20;99.90;;;;;;6328390;22;20343;-89
2024/02/01 23:27:30;;;;;;;6.45;0.60;;;5.20;99.90;;;;;;6302168;22;20094;-90
2024/02/01 23:29:56;;;;;;;7.03;0.63;;;5.30;99.90;;;;;;6328544;22;20482;-87
2024/02/01 23:32:22;;;;;;;6.60;0.68;;;5.20;99.90;;;;;;6328332;22;20014;-89
2024/02/01 23:34:48;;;;;;;5.68;0.57;;;5.20;99.90;;;;;;6302364;22;20008;-90
2024/02/01 23:37:13;;;;;;;5.07;0.50;;;5.20;99.90;;;;;;6301706;22;20019;-89
2024/02/01 23:39:40;;;;;;;7.60;0.50;;;5.30;99.90;;;;;;6328144;22;20300;-90
2024/02/01 23:42:06;;;;;;;4.90;0.40;;;5.20;99.90;;;;;;6301929;22;20019;-89
2024/02/01 23:44:32;;;;;;;3.72;0.50;;;5.20;99.90;;;;;;6302169;22;20099;-89
2024/02/01 23:46:57;;;;;;;5.43;0.40;;;5.20;99.90;;;;;;6327950;22;20027;-90
2024/02/01 23:49:24;;;;;;;5.20;0.90;;;5.20;99.90;;;;;;6301798;22;20072;-89
2024/02/01 23:51:51;;;;;;;6.18;0.50;;;5.30;99.90;;;;;;6328340;22;20451;-90
2024/02/01 23:54:17;;;;;;;6.65;0.77;;;5.30;99.90;;;;;;6301609;22;20007;-89
2024/02/01 23:56:42;;;;;;;6.00;0.80;;;5.30;99.90;;;;;;6301667;22;19999;-89
2024/02/01 23:59:08;;;;;;;8.43;0.60;;;5.30;99.90;;;;;;6304108;22;20003;-90
